Current | Forecast
Updated: 7:00 AM ChST on August 18, 2017
Observed at Iwojima, Japan
Temperature 81°F
Humidity 84%
Dew Point 75°F
Wind East at 5 mph
Pressure 29.83 in (Rising)
Conditions Mostly Cloudy
Visibility 6.2 miles
UV 0 out of 16
Clouds (FEW) : 1500 ft
Mostly Cloudy (BKN) : 23000 ft
Yesterday's Maximum 88°F
Yesterday's Minimum 79°F approx.
Yesterday's Cooling Degree Days 18 approx.
Sunrise5:09 AM JST
Sunset6:07 PM JST
Moon Rise1:12 AM JST
Moon Set3:00 PM JST
Moon PhaseMoon Phase
Waning Crescent
Raw METARMETAR RJAW 172100Z 08004KT 050V110 9999 FEW015 BKN230 27/24 Q1010 RMK 1CU015 A2983


Monday
. High: 80° F.
Tuesday
. High: 80° F.
Wednesday
. High: 80° F.
Thursday
. High: 80° F.
Friday
. High: 82° F.
Saturday
. High: 82° F.
Sunday
. High: 82° F.
Monday
. High: 82° F.

Units: English | Metric

Find the Weather for any City, State or Zipcode, or Country:

U.S. State List | Severe Weather | Tropical Storms | Ski Conditions
United States | Canada | Central America | South America | Asia | Europe | Australia | Africa | Islands

Weather Underground

© Copyright 2017
The Weather Company, LLC